Time;durP1;ratioP1;P1;durP2;ratioP2;P2;SDS_P1;SDS_P2;PMS_P1;PMS_P2;Temp;Humidity;BMP_temperature;BMP_pressure;BME280_temperature;BME280_humidity;BME280_pressure;Samples;Min_cycle;Max_cycle;Signal;HPM_P1;HPM_P2
2022/09/09 00:02:21;;;;;;;2.45;1.40;;;15.30;91.50;;;;;;5084556;28;20650;-87
2022/09/09 00:05:15;;;;;;;1.80;1.40;;;15.30;91.50;;;;;;5092423;28;20283;-87
2022/09/09 00:08:05;;;;;;;3.55;1.42;;;15.20;92.30;;;;;;5093106;28;20229;-88
2022/09/09 00:10:55;;;;;;;3.05;1.70;;;15.20;92.50;;;;;;5093939;28;20215;-88
2022/09/09 00:13:37;;;;;;;2.10;1.55;;;15.10;92.60;;;;;;5093839;28;20254;-88
2022/09/09 00:16:16;;;;;;;3.72;1.40;;;15.10;92.90;;;;;;5089535;28;20197;-88
2022/09/09 00:18:53;;;;;;;5.35;1.45;;;15.10;92.90;;;;;;5093449;28;20200;-88
2022/09/09 00:21:24;;;;;;;2.60;1.40;;;15.10;93.00;;;;;;5088008;28;20288;-88
2022/09/09 00:23:55;;;;;;;2.08;1.40;;;15.20;92.90;;;;;;5093886;28;20284;-88
2022/09/09 00:26:33;;;;;;;1.95;1.42;;;15.20;93.20;;;;;;5089512;28;20604;-88
2022/09/09 00:29:06;;;;;;;1.98;1.50;;;15.10;92.90;;;;;;5095608;28;20283;-87
2022/09/09 00:31:42;;;;;;;2.22;1.40;;;15.20;93.00;;;;;;5098515;28;20286;-87
2022/09/09 00:34:14;;;;;;;2.35;1.45;;;15.20;92.90;;;;;;5105878;28;20242;-91
2022/09/09 00:36:51;;;;;;;1.90;1.40;;;15.20;92.70;;;;;;5090947;28;20279;-89
2022/09/09 00:39:38;;;;;;;2.33;1.63;;;15.20;92.60;;;;;;5094743;28;20351;-88
2022/09/09 00:42:14;;;;;;;1.40;1.30;;;15.30;93.00;;;;;;5083658;28;20192;-88
2022/09/09 00:44:56;;;;;;;3.97;1.70;;;15.40;92.70;;;;;;5104098;28;20753;-88
2022/09/09 00:47:47;;;;;;;2.58;1.40;;;15.50;92.40;;;;;;5084655;28;20232;-89
2022/09/09 00:50:36;;;;;;;2.65;1.30;;;15.50;92.70;;;;;;5092631;28;20622;-88
2022/09/09 00:53:27;;;;;;;2.20;1.50;;;15.50;92.70;;;;;;5099293;28;20288;-88
2022/09/09 00:56:14;;;;;;;2.80;1.52;;;15.50;92.50;;;;;;5092120;28;20201;-88
2022/09/09 00:59:11;;;;;;;2.83;1.40;;;15.50;92.40;;;;;;5092623;28;20193;-88
2022/09/09 01:01:39;;;;;;;1.45;1.35;;;15.40;92.40;;;;;;5093654;28;20280;-88
2022/09/09 01:04:11;;;;;;;1.77;1.40;;;15.40;92.60;;;;;;5094653;28;20196;-88
2022/09/09 01:06:39;;;;;;;2.75;1.27;;;15.50;92.40;;;;;;5075714;28;20236;-89
2022/09/09 01:09:15;;;;;;;2.67;1.50;;;15.60;91.90;;;;;;5089647;28;20233;-88
2022/09/09 01:11:56;;;;;;;3.03;1.40;;;15.60;91.60;;;;;;5082977;28;20243;-88
2022/09/09 01:14:47;;;;;;;1.50;1.40;;;15.60;91.60;;;;;;5081387;28;20259;-87
2022/09/09 01:17:23;;;;;;;4.18;1.33;;;15.50;91.60;;;;;;5097823;28;20200;-87
2022/09/09 01:20:13;;;;;;;3.45;1.35;;;15.50;91.60;;;;;;5094293;28;20212;-88
2022/09/09 01:22:50;;;;;;;1.77;1.30;;;15.50;91.90;;;;;;5087612;28;20279;-88
2022/09/09 01:25:31;;;;;;;1.80;1.30;;;15.50;91.60;;;;;;5096167;28;20208;-90
2022/09/09 01:28:02;;;;;;;3.67;1.33;;;15.60;91.60;;;;;;5092680;28;20252;-88
2022/09/09 01:30:31;;;;;;;2.13;1.40;;;15.50;91.60;;;;;;5090374;28;20279;-89
2022/09/09 01:33:01;;;;;;;2.53;1.60;;;15.50;91.60;;;;;;5102331;28;20310;-88
2022/09/09 01:35:37;;;;;;;1.77;1.23;;;15.50;91.60;;;;;;5085695;28;20203;-88
2022/09/09 01:38:05;;;;;;;1.65;1.35;;;15.50;91.70;;;;;;5087677;28;20601;-88
2022/09/09 01:40:37;;;;;;;1.40;1.30;;;15.40;91.60;;;;;;5092635;28;20201;-88
2022/09/09 01:43:08;;;;;;;1.60;1.27;;;15.40;91.90;;;;;;5097721;28;20243;-87
2022/09/09 01:45:35;;;;;;;3.22;1.48;;;15.30;92.30;;;;;;5094548;28;20599;-88
2022/09/09 01:48:03;;;;;;;1.83;1.20;;;15.30;92.50;;;;;;5098545;28;20621;-89
2022/09/09 01:50:30;;;;;;;2.35;1.60;;;15.30;92.80;;;;;;5094619;28;20200;-89
2022/09/09 01:56:36;;;;;;;1.58;1.40;;;15.30;93.00;;;;;;5095508;28;20201;-88
2022/09/09 01:59:20;;;;;;;1.52;1.00;;;15.30;93.10;;;;;;5095938;28;20284;-88
2022/09/09 02:01:59;;;;;;;1.75;1.30;;;15.30;93.50;;;;;;5091761;28;20232;-89
2022/09/09 02:04:38;;;;;;;5.38;1.30;;;15.30;93.60;;;;;;5095556;28;20231;-88
2022/09/09 02:07:29;;;;;;;1.65;1.40;;;15.30;94.00;;;;;;5093338;28;20231;-88
2022/09/09 02:10:01;;;;;;;2.88;1.27;;;15.30;93.80;;;;;;5093040;28;20295;-89
2022/09/09 02:12:32;;;;;;;2.53;1.48;;;15.20;93.90;;;;;;5096021;28;20695;-88
2022/09/09 02:15:12;;;;;;;3.30;1.38;;;15.20;93.90;;;;;;5100544;28;20204;-89
2022/09/09 02:17:51;;;;;;;1.95;1.50;;;15.10;94.20;;;;;;5094799;28;20287;-89
2022/09/09 02:20:38;;;;;;;3.42;1.30;;;15.10;94.50;;;;;;5093310;28;20231;-87
2022/09/09 02:23:08;;;;;;;1.77;1.40;;;15.00;94.30;;;;;;5084215;28;20311;-88
2022/09/09 02:25:37;;;;;;;2.17;1.30;;;15.00;94.50;;;;;;5091517;28;20204;-89
2022/09/09 02:28:07;;;;;;;1.63;1.40;;;15.10;94.70;;;;;;5096379;28;20221;-87
2022/09/09 02:30:39;;;;;;;2.00;1.48;;;15.00;94.80;;;;;;5099701;28;20603;-88
2022/09/09 02:33:25;;;;;;;1.40;1.30;;;15.10;95.00;;;;;;5094663;28;20308;-88
2022/09/09 02:36:10;;;;;;;2.05;1.55;;;15.10;94.70;;;;;;5086537;28;20233;-87
2022/09/09 02:38:41;;;;;;;4.20;1.52;;;15.00;94.80;;;;;;5083732;28;20278;-86
2022/09/09 02:41:08;;;;;;;3.88;1.50;;;15.00;94.80;;;;;;5089958;28;20220;-88
2022/09/09 02:43:37;;;;;;;3.53;1.42;;;15.00;95.00;;;;;;5099706;28;20248;-90
2022/09/09 02:46:17;;;;;;;2.00;1.50;;;14.90;95.40;;;;;;5094605;28;20184;-89
2022/09/09 02:48:54;;;;;;;2.75;1.65;;;14.90;95.90;;;;;;5087583;28;20228;-89
2022/09/09 02:51:30;;;;;;;1.92;1.30;;;14.80;95.90;;;;;;5095228;28;20582;-89
2022/09/09 02:54:05;;;;;;;2.60;1.40;;;14.80;95.60;;;;;;5093960;28;20373;-88
2022/09/09 02:56:39;;;;;;;1.85;1.38;;;14.90;95.40;;;;;;5087027;28;20192;-88
2022/09/09 02:59:07;;;;;;;2.13;1.50;;;14.90;95.30;;;;;;5100601;28;20223;-88
2022/09/09 03:01:44;;;;;;;2.63;1.60;;;15.00;95.70;;;;;;5097035;28;20656;-89
2022/09/09 03:04:11;;;;;;;1.83;1.38;;;15.00;95.40;;;;;;5081885;28;20259;-88
2022/09/09 03:06:38;;;;;;;3.30;1.58;;;15.00;95.40;;;;;;5092854;28;20292;-87
2022/09/09 03:09:05;;;;;;;2.25;1.60;;;15.00;95.20;;;;;;5097842;28;20196;-87
2022/09/09 03:11:32;;;;;;;2.90;1.52;;;14.90;95.30;;;;;;5105764;28;20236;-87
2022/09/09 03:13:59;;;;;;;3.75;2.83;;;14.90;95.60;;;;;;5088099;28;20244;-88
2022/09/09 03:16:31;;;;;;;2.72;2.25;;;14.90;95.40;;;;;;5091899;28;20683;-88
2022/09/09 03:19:02;;;;;;;2.42;1.50;;;15.00;95.60;;;;;;5089816;28;20215;-89
2022/09/09 03:21:54;;;;;;;1.85;1.40;;;14.90;95.40;;;;;;5093407;28;20226;-88
2022/09/09 03:24:22;;;;;;;1.85;1.45;;;14.90;95.40;;;;;;5095059;28;20247;-87
2022/09/09 03:26:50;;;;;;;2.35;1.33;;;14.90;95.30;;;;;;5098436;28;20283;-88
2022/09/09 03:29:25;;;;;;;1.40;1.30;;;15.00;95.20;;;;;;5096756;28;20209;-88
2022/09/09 03:31:51;;;;;;;2.00;1.60;;;14.90;95.20;;;;;;5099541;28;20675;-87
2022/09/09 03:34:20;;;;;;;1.58;1.30;;;14.80;95.30;;;;;;5093181;28;20252;-87
2022/09/09 03:36:49;;;;;;;4.28;1.48;;;14.80;95.60;;;;;;5096657;28;20292;-88
2022/09/09 03:39:16;;;;;;;2.67;1.30;;;14.70;95.80;;;;;;5084346;28;20196;-88
2022/09/09 03:41:49;;;;;;;3.92;1.50;;;14.70;96.00;;;;;;5093965;28;20200;-87
2022/09/09 03:44:18;;;;;;;2.88;1.70;;;14.60;96.40;;;;;;5074225;28;20216;-88
2022/09/09 03:46:45;;;;;;;2.97;1.30;;;14.60;96.80;;;;;;5087382;28;20203;-88
2022/09/09 03:49:12;;;;;;;1.90;1.20;;;14.60;96.80;;;;;;5081856;28;20614;-88
2022/09/09 03:51:41;;;;;;;1.63;1.40;;;14.60;96.80;;;;;;5085710;28;20250;-87
2022/09/09 03:54:10;;;;;;;1.55;1.45;;;14.60;96.80;;;;;;5088588;28;20227;-89
2022/09/09 03:56:37;;;;;;;2.75;1.33;;;14.60;97.00;;;;;;5087509;28;20188;-88
2022/09/09 03:59:08;;;;;;;2.95;1.40;;;14.60;97.10;;;;;;5090519;28;20197;-88
2022/09/09 04:01:43;;;;;;;1.65;1.33;;;14.70;97.30;;;;;;5086716;28;20644;-88
2022/09/09 04:04:11;;;;;;;1.67;1.45;;;14.70;97.30;;;;;;5093685;28;20204;-88
2022/09/09 04:07:18;;;;;;;2.85;1.60;;;14.70;97.20;;;;;;5093689;28;20296;-89
2022/09/09 04:09:46;;;;;;;1.70;1.60;;;14.70;96.80;;;;;;5067763;28;20204;-88
2022/09/09 04:12:31;;;;;;;2.58;1.40;;;14.80;96.90;;;;;;5086443;28;20204;-88
2022/09/09 04:15:00;;;;;;;2.83;1.27;;;14.80;96.90;;;;;;5093101;28;20216;-88
2022/09/09 04:17:27;;;;;;;2.92;1.55;;;14.80;96.80;;;;;;5084077;28;20280;-88
2022/09/09 04:19:56;;;;;;;2.65;1.48;;;14.80;96.90;;;;;;5089716;28;20905;-88
2022/09/09 04:22:31;;;;;;;1.65;1.30;;;14.80;96.80;;;;;;5074491;28;20244;-88
2022/09/09 04:25:26;;;;;;;2.20;1.33;;;14.80;96.90;;;;;;5098273;28;20219;-88
2022/09/09 04:27:55;;;;;;;3.58;1.50;;;14.80;96.80;;;;;;5106028;28;20201;-88
2022/09/09 04:30:42;;;;;;;2.15;1.60;;;14.80;96.80;;;;;;5087298;28;20196;-87
2022/09/09 04:34:02;;;;;;;1.98;1.63;;;14.70;96.80;;;;;;5091967;28;20192;-88
2022/09/09 04:39:50;;;;;;;2.97;1.60;;;14.60;96.80;;;;;;5095643;28;20182;-89
2022/09/09 04:42:20;;;;;;;2.60;1.27;;;14.70;96.80;;;;;;5094539;28;20227;-88
2022/09/09 04:45:13;;;;;;;2.38;1.35;;;14.70;96.80;;;;;;5094052;28;20224;-87
2022/09/09 04:48:12;;;;;;;4.05;1.42;;;14.60;96.80;;;;;;5092989;28;20188;-88
2022/09/09 04:51:04;;;;;;;3.40;1.42;;;14.50;97.00;;;;;;5089621;28;20255;-88
2022/09/09 04:53:37;;;;;;;2.75;1.52;;;14.50;97.30;;;;;;5074830;28;20307;-87
2022/09/09 04:56:07;;;;;;;2.42;1.55;;;14.60;97.40;;;;;;5093181;28;20192;-88
2022/09/09 04:58:35;;;;;;;2.88;1.30;;;14.50;97.50;;;;;;5091863;28;20197;-88
2022/09/09 05:01:07;;;;;;;1.98;1.60;;;14.50;97.80;;;;;;5100853;28;20217;-87
2022/09/09 05:03:34;;;;;;;1.88;1.50;;;14.50;98.20;;;;;;5101235;28;20656;-87
2022/09/09 05:06:14;;;;;;;2.65;1.63;;;14.50;98.20;;;;;;5091531;28;20196;-87
2022/09/09 05:09:24;;;;;;;3.13;1.30;;;14.50;98.20;;;;;;5101595;28;20200;-87
2022/09/09 05:12:19;;;;;;;3.50;1.80;;;14.60;98.00;;;;;;5096189;28;21885;-88
2022/09/09 05:14:56;;;;;;;3.80;1.40;;;14.70;97.30;;;;;;5091292;28;20781;-88
2022/09/09 05:17:42;;;;;;;4.38;1.60;;;14.70;97.00;;;;;;5099426;28;20210;-88
2022/09/09 05:20:09;;;;;;;4.13;1.35;;;15.20;97.00;;;;;;5087701;28;20652;-87
2022/09/09 05:22:36;;;;;;;1.77;1.30;;;15.50;96.10;;;;;;5096706;28;21636;-89
2022/09/09 05:25:08;;;;;;;1.40;1.30;;;15.70;95.10;;;;;;5103246;28;20660;-89
2022/09/09 05:27:39;;;;;;;4.28;1.65;;;15.70;94.90;;;;;;5101126;28;20207;-88
2022/09/09 05:30:13;;;;;;;3.97;1.45;;;15.80;94.90;;;;;;5092730;28;20196;-89
2022/09/09 05:33:09;;;;;;;2.28;1.20;;;16.00;93.30;;;;;;5096694;28;20199;-89
2022/09/09 05:35:37;;;;;;;3.75;1.30;;;15.80;93.40;;;;;;5089529;28;20216;-89
2022/09/09 05:38:08;;;;;;;3.70;1.42;;;15.60;93.90;;;;;;5080012;28;20188;-89
2022/09/09 05:40:50;;;;;;;2.25;1.38;;;15.70;94.70;;;;;;5097198;28;20206;-89
2022/09/09 05:43:44;;;;;;;3.58;1.42;;;15.60;94.60;;;;;;5091827;28;20189;-89
2022/09/09 05:50:02;;;;;;;2.05;1.48;;;15.50;94.90;;;;;;5095103;28;20253;-87
2022/09/09 05:52:29;;;;;;;9.48;2.05;;;15.40;94.90;;;;;;5090495;28;20208;-89
2022/09/09 05:58:55;;;;;;;4.88;1.60;;;15.30;95.70;;;;;;5096608;28;20214;-87
2022/09/09 06:01:27;;;;;;;3.13;1.33;;;15.40;95.30;;;;;;5101736;28;20204;-87
2022/09/09 06:04:07;;;;;;;2.88;1.50;;;15.80;95.00;;;;;;5096853;28;20592;-87
2022/09/09 06:06:39;;;;;;;1.27;1.17;;;16.10;93.60;;;;;;5087371;28;20559;-88
2022/09/09 06:09:09;;;;;;;2.88;1.60;;;16.10;92.90;;;;;;5100806;28;20271;-87
2022/09/09 06:12:12;;;;;;;4.18;1.40;;;16.10;93.50;;;;;;5097501;28;20204;-91
2022/09/09 06:14:55;;;;;;;1.83;1.70;;;15.90;94.20;;;;;;5093088;28;20228;-88
2022/09/09 06:17:22;;;;;;;4.47;2.25;;;15.90;94.00;;;;;;5099026;28;20196;-88
2022/09/09 06:19:49;;;;;;;3.55;1.70;;;16.00;94.10;;;;;;5102644;28;20196;-87
2022/09/09 06:22:26;;;;;;;10.70;1.92;;;16.10;93.50;;;;;;5101815;28;20197;-86
2022/09/09 06:24:55;;;;;;;4.05;1.40;;;16.20;92.70;;;;;;5104192;28;20197;-87
2022/09/09 06:30:49;;;;;;;2.83;1.77;;;16.00;92.90;;;;;;5092566;28;20223;-87
2022/09/09 06:33:43;;;;;;;2.08;1.23;;;15.90;93.30;;;;;;5096570;28;20207;-87
2022/09/09 06:36:15;;;;;;;3.05;1.90;;;16.00;93.60;;;;;;5083769;28;20240;-87
2022/09/09 06:38:45;;;;;;;3.33;1.73;;;16.00;93.00;;;;;;5070082;28;20201;-86
2022/09/09 06:41:14;;;;;;;2.67;1.50;;;16.00;93.00;;;;;;5096707;28;20207;-87
2022/09/09 06:43:43;;;;;;;2.75;1.60;;;16.10;93.00;;;;;;5096453;28;20223;-86
2022/09/09 06:46:21;;;;;;;3.20;1.85;;;16.10;93.10;;;;;;5097026;28;20199;-88
2022/09/09 06:48:50;;;;;;;5.00;1.60;;;16.20;92.20;;;;;;5098841;28;20192;-88
2022/09/09 06:51:32;;;;;;;3.30;1.75;;;16.30;91.80;;;;;;5096504;28;20192;-86
2022/09/09 06:54:23;;;;;;;2.17;1.40;;;16.40;91.80;;;;;;5098335;28;20280;-85
2022/09/09 06:56:50;;;;;;;2.80;1.70;;;16.50;91.80;;;;;;5086901;28;20197;-89
2022/09/09 06:59:19;;;;;;;2.85;1.30;;;16.60;91.50;;;;;;5095028;28;20199;-87
2022/09/09 07:01:51;;;;;;;4.28;1.10;;;16.60;90.70;;;;;;5095461;28;20193;-87
2022/09/09 07:04:19;;;;;;;2.22;1.17;;;16.60;91.00;;;;;;5093848;28;20264;-87
2022/09/09 07:06:47;;;;;;;1.45;1.30;;;16.60;91.30;;;;;;5091109;28;20203;-88
2022/09/09 07:09:16;;;;;;;3.75;1.50;;;16.60;91.00;;;;;;5096145;28;20193;-89
2022/09/09 07:11:46;;;;;;;1.35;1.10;;;16.60;90.80;;;;;;5096909;28;20201;-87
2022/09/09 07:14:13;;;;;;;3.22;1.42;;;16.60;90.50;;;;;;5081213;28;20271;-87
2022/09/09 07:17:20;;;;;;;3.13;1.20;;;16.90;90.60;;;;;;5089868;28;20203;-86
2022/09/09 07:20:13;;;;;;;3.72;1.10;;;17.00;90.70;;;;;;5098280;28;20756;-87
2022/09/09 07:22:43;;;;;;;4.47;1.20;;;16.90;90.00;;;;;;5093347;28;20250;-88
2022/09/09 07:25:31;;;;;;;1.23;1.13;;;16.90;90.20;;;;;;5091160;28;20195;-88
2022/09/09 07:28:27;;;;;;;1.40;1.20;;;16.90;90.20;;;;;;5078430;28;20196;-87
2022/09/09 07:30:56;;;;;;;1.67;1.25;;;16.80;91.70;;;;;;5099737;28;20373;-87
2022/09/09 07:33:37;;;;;;;2.35;1.60;;;16.60;91.80;;;;;;5098834;28;20200;-90
2022/09/09 07:36:10;;;;;;;4.00;1.48;;;16.60;91.50;;;;;;5092823;28;20583;-88
2022/09/09 07:39:02;;;;;;;4.47;1.33;;;16.60;91.80;;;;;;5076952;28;20636;-89
2022/09/09 07:41:32;;;;;;;4.22;1.33;;;16.70;91.10;;;;;;5091730;28;20302;-89
2022/09/09 07:44:10;;;;;;;2.00;1.15;;;16.90;91.10;;;;;;5093851;28;20217;-89
2022/09/09 07:46:39;;;;;;;2.00;1.27;;;16.90;90.60;;;;;;5087329;28;20196;-89
2022/09/09 07:49:08;;;;;;;1.42;1.10;;;16.90;90.50;;;;;;5088852;28;20209;-90
2022/09/09 07:51:37;;;;;;;1.95;1.38;;;17.00;90.80;;;;;;5080769;28;20205;-89
2022/09/09 07:54:06;;;;;;;1.52;1.20;;;17.30;90.00;;;;;;5092221;28;20275;-89
2022/09/09 07:56:37;;;;;;;4.32;1.38;;;17.40;89.40;;;;;;5093075;28;20192;-89
2022/09/09 07:59:14;;;;;;;3.03;1.35;;;17.60;85.10;;;;;;5092448;28;20201;-86
2022/09/09 08:02:06;;;;;;;1.98;1.40;;;17.80;83.90;;;;;;5094956;28;20224;-88
2022/09/09 08:04:37;;;;;;;1.30;1.20;;;17.80;84.90;;;;;;5093708;28;20204;-88
2022/09/09 08:07:15;;;;;;;1.67;1.38;;;17.70;86.30;;;;;;5092997;28;20213;-90
2022/09/09 08:09:43;;;;;;;1.92;1.48;;;17.70;86.70;;;;;;5093575;28;20234;-89
2022/09/09 08:12:12;;;;;;;1.60;1.33;;;17.90;85.10;;;;;;5087756;28;20188;-90
2022/09/09 08:14:44;;;;;;;1.83;1.42;;;17.80;83.90;;;;;;5095285;28;20597;-89
2022/09/09 08:17:16;;;;;;;1.65;1.20;;;17.90;83.20;;;;;;5093763;28;20192;-88
2022/09/09 08:20:10;;;;;;;1.70;1.20;;;18.00;84.10;;;;;;5074840;28;20200;-88
2022/09/09 08:22:58;;;;;;;1.40;1.30;;;18.10;83.30;;;;;;5094056;28;20192;-87
2022/09/09 08:25:54;;;;;;;3.17;1.20;;;18.20;84.00;;;;;;5094130;28;20206;-90
2022/09/09 08:28:31;;;;;;;1.65;1.23;;;18.20;83.40;;;;;;5096369;28;20587;-87
2022/09/09 08:31:14;;;;;;;2.38;1.83;;;18.10;83.90;;;;;;5085281;28;20655;-91
2022/09/09 08:33:49;;;;;;;3.10;1.30;;;18.10;86.00;;;;;;5094827;28;20189;-91
2022/09/09 08:36:27;;;;;;;3.10;1.30;;;18.20;85.00;;;;;;5078330;28;20211;-91
2022/09/09 08:39:01;;;;;;;2.40;1.50;;;18.40;84.60;;;;;;5090331;28;20188;-89
2022/09/09 08:42:03;;;;;;;4.47;1.38;;;18.50;83.20;;;;;;5097537;28;20296;-90
2022/09/09 08:44:50;;;;;;;2.03;1.20;;;18.60;80.90;;;;;;5093031;28;20213;-90
2022/09/09 08:47:31;;;;;;;2.85;1.30;;;18.50;80.90;;;;;;5095117;28;20215;-89
2022/09/09 08:50:19;;;;;;;1.95;1.30;;;18.40;80.10;;;;;;5072420;28;20192;-88
2022/09/09 08:53:05;;;;;;;1.65;1.42;;;18.10;83.60;;;;;;5092526;28;20655;-89
2022/09/09 08:55:51;;;;;;;1.90;1.30;;;18.00;83.70;;;;;;5084118;28;20208;-87
2022/09/09 08:58:21;;;;;;;2.10;1.30;;;18.00;83.20;;;;;;5095755;28;20189;-87
2022/09/09 09:01:03;;;;;;;2.72;1.50;;;17.90;85.50;;;;;;5094999;28;20200;-86
2022/09/09 09:03:45;;;;;;;3.30;1.48;;;18.00;83.90;;;;;;5097554;28;20204;-87
2022/09/09 09:06:44;;;;;;;1.63;1.30;;;18.30;82.50;;;;;;5091073;28;20205;-88
2022/09/09 09:09:21;;;;;;;2.28;1.30;;;18.50;80.00;;;;;;5090305;28;20232;-87
2022/09/09 09:12:15;;;;;;;2.80;1.40;;;18.60;80.80;;;;;;5086099;28;20207;-87
2022/09/09 09:15:18;;;;;;;2.22;1.85;;;18.60;79.80;;;;;;5087039;28;20231;-88
2022/09/09 09:21:20;;;;;;;2.08;1.50;;;18.80;80.00;;;;;;5091514;28;20228;-87
2022/09/09 09:23:58;;;;;;;7.03;1.60;;;19.10;77.40;;;;;;5096422;28;20624;-87
2022/09/09 09:26:49;;;;;;;4.88;1.75;;;19.30;77.90;;;;;;5074583;28;20236;-86
2022/09/09 09:29:31;;;;;;;2.17;1.50;;;19.40;76.60;;;;;;5095819;28;20207;-87
2022/09/09 09:32:04;;;;;;;3.88;1.42;;;19.50;76.90;;;;;;5093697;28;20193;-83
2022/09/09 09:34:31;;;;;;;1.67;1.30;;;19.60;78.10;;;;;;5066552;28;20273;-86
2022/09/09 09:37:02;;;;;;;3.63;1.40;;;19.70;75.50;;;;;;5094925;28;20200;-86
2022/09/09 09:39:36;;;;;;;2.17;1.30;;;19.50;75.50;;;;;;5090209;28;20197;-86
2022/09/09 09:42:13;;;;;;;2.50;1.40;;;19.50;75.80;;;;;;5094848;28;20193;-87
2022/09/09 09:44:41;;;;;;;2.53;1.23;;;19.30;76.70;;;;;;5096206;28;20345;-86
2022/09/09 09:47:32;;;;;;;1.65;1.30;;;19.10;78.50;;;;;;5097377;28;20201;-85
2022/09/09 09:50:19;;;;;;;4.07;1.15;;;19.00;80.10;;;;;;5098373;28;20278;-86
2022/09/09 09:52:57;;;;;;;2.13;1.27;;;18.80;80.80;;;;;;5096595;28;20192;-87
2022/09/09 09:55:27;;;;;;;1.38;1.20;;;18.70;81.30;;;;;;5091454;28;20217;-87
2022/09/09 09:58:06;;;;;;;3.58;1.30;;;18.40;81.40;;;;;;5089569;28;20197;-88
2022/09/09 10:00:35;;;;;;;2.53;1.50;;;18.40;83.60;;;;;;5097821;28;20241;-87
2022/09/09 10:03:39;;;;;;;2.67;1.40;;;18.50;82.90;;;;;;5094879;28;20567;-87
2022/09/09 10:06:07;;;;;;;1.92;1.10;;;18.60;82.30;;;;;;5095775;28;20203;-86
2022/09/09 10:08:47;;;;;;;5.70;1.48;;;18.50;79.80;;;;;;5095324;28;20258;-87
2022/09/09 10:11:42;;;;;;;2.05;1.30;;;18.40;79.70;;;;;;5101933;28;20651;-88
2022/09/09 10:14:20;;;;;;;1.92;1.13;;;18.50;79.80;;;;;;5091444;28;20225;-90
2022/09/09 10:17:03;;;;;;;3.30;1.35;;;18.70;79.90;;;;;;5095833;28;20235;-87
2022/09/09 10:23:36;;;;;;;1.92;1.23;;;18.60;77.10;;;;;;5093928;28;20229;-86
2022/09/09 10:26:30;;;;;;;1.48;1.15;;;18.30;77.50;;;;;;5093729;28;20539;-87
2022/09/09 10:29:30;;;;;;;1.88;1.35;;;17.90;79.30;;;;;;5072567;28;20205;-87
2022/09/09 10:32:26;;;;;;;3.10;1.30;;;17.70;82.00;;;;;;5087042;28;20200;-87
2022/09/09 10:38:30;;;;;;;2.15;1.20;;;17.70;83.50;;;;;;5083682;28;20193;-86
2022/09/09 10:41:42;;;;;;;2.42;1.55;;;18.00;84.30;;;;;;5100298;28;20212;-87
2022/09/09 10:44:24;;;;;;;2.28;1.20;;;18.20;81.30;;;;;;5091721;28;21287;-89
2022/09/09 10:47:22;;;;;;;2.05;0.90;;;18.30;79.60;;;;;;5093902;28;20588;-87
2022/09/09 10:50:05;;;;;;;2.03;1.00;;;18.50;78.50;;;;;;5080895;28;20190;-87
2022/09/09 10:52:47;;;;;;;1.60;1.30;;;18.50;79.50;;;;;;5080575;28;20598;-87
2022/09/09 10:55:21;;;;;;;2.22;1.20;;;18.50;79.80;;;;;;5091218;28;20214;-86
2022/09/09 10:57:51;;;;;;;1.38;1.13;;;18.70;76.20;;;;;;5090257;28;20193;-86
2022/09/09 11:00:24;;;;;;;3.50;1.40;;;18.60;77.00;;;;;;5086449;28;20291;-89
2022/09/09 11:02:55;;;;;;;1.52;1.15;;;18.60;77.40;;;;;;5080147;28;20256;-88
2022/09/09 11:05:43;;;;;;;3.05;1.23;;;18.60;78.10;;;;;;5094508;28;20208;-87
2022/09/09 11:08:27;;;;;;;3.75;1.13;;;18.70;77.40;;;;;;5093687;28;20200;-86
2022/09/09 11:11:01;;;;;;;1.73;1.23;;;18.90;75.90;;;;;;5096518;28;20204;-87
2022/09/09 11:16:56;;;;;;;2.78;1.10;;;19.50;72.40;;;;;;5085781;28;20682;-87
2022/09/09 11:20:12;;;;;;;2.33;1.10;;;19.70;68.60;;;;;;5099181;28;20331;-87
2022/09/09 11:22:49;;;;;;;1.63;1.30;;;19.70;67.50;;;;;;5097446;28;20581;-87
2022/09/09 11:25:36;;;;;;;2.47;1.20;;;19.70;67.20;;;;;;5095658;28;20192;-83
2022/09/09 11:28:30;;;;;;;2.47;1.27;;;19.90;67.40;;;;;;5098718;28;20224;-85
2022/09/09 11:31:17;;;;;;;1.30;1.20;;;20.10;64.50;;;;;;5104647;28;20189;-83
2022/09/09 11:34:18;;;;;;;1.80;1.15;;;19.90;63.40;;;;;;5084087;28;20644;-83
2022/09/09 11:37:20;;;;;;;1.40;0.90;;;19.90;62.10;;;;;;5104323;28;20224;-84
2022/09/09 11:40:16;;;;;;;1.20;0.75;;;19.70;65.90;;;;;;5047841;28;20206;-87
2022/09/09 11:46:23;;;;;;;1.45;0.82;;;19.60;66.70;;;;;;5040661;28;20218;-89
2022/09/09 11:49:00;;;;;;;0.80;0.80;;;19.80;59.10;;;;;;5034932;28;20207;-84
2022/09/09 11:51:39;;;;;;;2.35;1.00;;;19.80;59.10;;;;;;5039060;28;20205;-84
2022/09/09 11:54:47;;;;;;;1.30;0.90;;;20.00;58.50;;;;;;5039209;28;20298;-88
2022/09/09 12:00:50;;;;;;;3.65;0.90;;;20.10;56.00;;;;;;5033821;28;20202;-83
2022/09/09 12:06:55;;;;;;;2.17;0.82;;;20.00;54.00;;;;;;5032479;28;20236;-86
2022/09/09 12:09:40;;;;;;;2.58;1.02;;;19.80;54.20;;;;;;5038160;28;20198;-86
2022/09/09 12:12:29;;;;;;;4.65;2.90;;;19.70;54.70;;;;;;5033784;28;20218;-86
2022/09/09 12:15:23;;;;;;;0.93;0.93;;;19.80;55.70;;;;;;5015257;28;20217;-87
2022/09/09 12:17:57;;;;;;;1.98;0.93;;;20.00;55.90;;;;;;5077723;28;20200;-87
2022/09/09 12:20:35;;;;;;;2.40;0.98;;;20.10;55.70;;;;;;5087194;28;20556;-87
2022/09/09 12:23:43;;;;;;;1.38;0.93;;;20.20;56.10;;;;;;5076381;28;20194;-87
2022/09/09 12:26:46;;;;;;;0.77;0.70;;;20.50;51.30;;;;;;5082995;28;20649;-87
2022/09/09 12:29:41;;;;;;;2.72;0.90;;;20.60;50.50;;;;;;5088872;28;20271;-87
2022/09/09 12:32:18;;;;;;;1.52;0.98;;;20.80;53.80;;;;;;5091106;28;20196;-87
2022/09/09 12:34:54;;;;;;;2.00;0.80;;;20.70;49.00;;;;;;5083684;28;20196;-87
2022/09/09 12:37:40;;;;;;;0.82;0.82;;;20.60;48.60;;;;;;5080369;28;20228;-90
2022/09/09 12:40:20;;;;;;;1.27;0.98;;;20.50;50.00;;;;;;5091667;28;20192;-89
2022/09/09 12:43:21;;;;;;;3.45;1.08;;;20.60;53.30;;;;;;5095378;28;20193;-90
2022/09/09 12:45:50;;;;;;;1.83;1.00;;;20.80;52.30;;;;;;5088347;28;20223;-88
2022/09/09 12:48:19;;;;;;;1.30;1.00;;;20.80;48.70;;;;;;5078560;28;20239;-89
2022/09/09 12:50:48;;;;;;;1.15;0.80;;;20.80;49.60;;;;;;5072746;28;20207;-87
2022/09/09 12:53:34;;;;;;;1.83;1.20;;;20.70;48.90;;;;;;5083250;28;20253;-88
2022/09/09 12:56:04;;;;;;;2.03;1.00;;;20.70;48.30;;;;;;5085591;28;20226;-87
2022/09/09 12:58:34;;;;;;;1.00;0.90;;;20.70;52.00;;;;;;5103227;28;20208;-90
2022/09/09 13:01:37;;;;;;;1.20;0.80;;;20.70;52.10;;;;;;5094126;28;20705;-88
2022/09/09 13:04:22;;;;;;;1.10;0.80;;;20.40;51.10;;;;;;5089226;28;20199;-87
2022/09/09 13:07:06;;;;;;;1.00;0.90;;;20.20;51.10;;;;;;5092821;28;20192;-87
2022/09/09 13:10:01;;;;;;;0.73;0.73;;;20.10;52.30;;;;;;5092016;28;20242;-87
2022/09/09 13:12:28;;;;;;;1.25;1.00;;;20.20;53.80;;;;;;5093377;28;20532;-88
2022/09/09 13:15:43;;;;;;;0.90;0.90;;;20.30;51.80;;;;;;5094346;28;20192;-88
2022/09/09 13:18:24;;;;;;;0.82;0.60;;;20.30;53.60;;;;;;5102762;28;20248;-82
2022/09/09 13:20:57;;;;;;;1.30;0.70;;;20.30;51.00;;;;;;5109154;28;20592;-87
2022/09/09 13:23:43;;;;;;;0.88;0.88;;;20.10;51.60;;;;;;5105879;28;20959;-88
2022/09/09 13:26:22;;;;;;;1.00;1.00;;;20.20;52.70;;;;;;5106323;28;20571;-86
2022/09/09 13:28:56;;;;;;;1.60;1.00;;;20.40;51.50;;;;;;5101721;28;20570;-90
2022/09/09 13:31:27;;;;;;;0.82;0.75;;;20.30;48.40;;;;;;5085781;28;20564;-87
2022/09/09 13:33:55;;;;;;;0.70;0.70;;;20.20;48.30;;;;;;5103896;28;20233;-88
2022/09/09 13:37:01;;;;;;;1.58;0.70;;;20.00;49.60;;;;;;5101776;28;20216;-88
2022/09/09 13:39:53;;;;;;;0.90;0.70;;;19.90;50.20;;;;;;5103753;28;20605;-90
2022/09/09 13:42:35;;;;;;;1.00;0.90;;;19.80;51.80;;;;;;5096812;28;20208;-88
2022/09/09 13:45:21;;;;;;;0.93;0.70;;;19.60;53.40;;;;;;5096614;28;20597;-89
2022/09/09 13:47:52;;;;;;;2.83;0.98;;;19.40;55.30;;;;;;5098374;28;20203;-90
2022/09/09 13:50:29;;;;;;;2.53;1.00;;;19.30;55.30;;;;;;5094228;28;20193;-89
2022/09/09 13:53:09;;;;;;;0.93;0.93;;;19.10;56.80;;;;;;5098424;28;20616;-89
2022/09/09 13:55:39;;;;;;;1.27;0.90;;;19.30;58.10;;;;;;5095801;28;20185;-89
2022/09/09 13:58:18;;;;;;;1.23;0.85;;;19.30;58.20;;;;;;5096347;28;20199;-90
2022/09/09 14:00:44;;;;;;;1.05;0.93;;;19.00;59.70;;;;;;5094040;28;20227;-89
2022/09/09 14:03:31;;;;;;;2.03;1.05;;;19.10;60.30;;;;;;5094084;28;20201;-90
2022/09/09 14:06:15;;;;;;;1.33;1.00;;;19.10;63.40;;;;;;5093115;28;20623;-91
2022/09/09 14:08:50;;;;;;;1.88;1.20;;;19.30;62.10;;;;;;5094511;28;20204;-89
2022/09/09 14:11:18;;;;;;;1.65;0.90;;;19.10;61.20;;;;;;5092912;28;20286;-89
2022/09/09 14:13:50;;;;;;;0.93;0.90;;;18.90;62.20;;;;;;5095779;28;20203;-88
2022/09/09 14:16:20;;;;;;;0.90;0.80;;;19.10;60.40;;;;;;5097995;28;20453;-89
2022/09/09 14:18:56;;;;;;;2.78;1.00;;;19.20;59.90;;;;;;5095203;28;20276;-89
2022/09/09 14:21:28;;;;;;;1.35;0.90;;;18.90;59.80;;;;;;5093335;28;20193;-89
2022/09/09 14:24:07;;;;;;;1.08;0.80;;;18.80;64.20;;;;;;5075554;28;20204;-89
2022/09/09 14:26:34;;;;;;;1.20;0.90;;;18.80;63.50;;;;;;5073412;28;20196;-90
2022/09/09 14:29:01;;;;;;;3.10;1.23;;;18.90;63.30;;;;;;5092163;28;20195;-89
2022/09/09 14:32:01;;;;;;;2.70;0.90;;;19.10;64.00;;;;;;5078919;28;20200;-90